sensor_id;sensor_type;location;lat;lon;timestamp;P1;durP1;ratioP1;P2;durP2;ratioP2
22955;SDS011;40888;48.148;11.526;2022-07-23T00:01:21;7.28;;;6.57;;
22955;SDS011;40888;48.148;11.526;2022-07-23T00:03:47;7.07;;;6.38;;
22955;SDS011;40888;48.148;11.526;2022-07-23T00:06:14;6.97;;;6.30;;
22955;SDS011;40888;48.148;11.526;2022-07-23T00:08:40;7.20;;;6.50;;
22955;SDS011;40888;48.148;11.526;2022-07-23T00:11:06;7.95;;;6.75;;
22955;SDS011;40888;48.148;11.526;2022-07-23T00:13:33;6.85;;;6.15;;
22955;SDS011;40888;48.148;11.526;2022-07-23T00:15:59;9.68;;;6.38;;
22955;SDS011;40888;48.148;11.526;2022-07-23T00:18:25;6.28;;;5.68;;
22955;SDS011;40888;48.148;11.526;2022-07-23T00:20:51;6.95;;;6.35;;
22955;SDS011;40888;48.148;11.526;2022-07-23T00:23:17;7.20;;;5.78;;
22955;SDS011;40888;48.148;11.526;2022-07-23T00:25:44;7.70;;;5.70;;
22955;SDS011;40888;48.148;11.526;2022-07-23T00:28:10;6.63;;;6.03;;
22955;SDS011;40888;48.148;11.526;2022-07-23T00:30:37;7.95;;;5.95;;
22955;SDS011;40888;48.148;11.526;2022-07-23T00:33:04;6.25;;;5.65;;
22955;SDS011;40888;48.148;11.526;2022-07-23T00:35:32;7.13;;;6.03;;
22955;SDS011;40888;48.148;11.526;2022-07-23T00:37:59;6.95;;;6.10;;
22955;SDS011;40888;48.148;11.526;2022-07-23T00:40:26;6.43;;;5.75;;
22955;SDS011;40888;48.148;11.526;2022-07-23T00:42:52;6.45;;;5.93;;
22955;SDS011;40888;48.148;11.526;2022-07-23T00:45:19;7.05;;;6.35;;
22955;SDS011;40888;48.148;11.526;2022-07-23T00:47:45;6.35;;;5.57;;
22955;SDS011;40888;48.148;11.526;2022-07-23T00:50:12;6.55;;;5.95;;
22955;SDS011;40888;48.148;11.526;2022-07-23T00:52:39;6.40;;;5.82;;
22955;SDS011;40888;48.148;11.526;2022-07-23T00:55:05;6.93;;;6.22;;
22955;SDS011;40888;48.148;11.526;2022-07-23T00:57:32;6.22;;;5.72;;
22955;SDS011;40888;48.148;11.526;2022-07-23T00:59:59;7.22;;;6.47;;
22955;SDS011;40888;48.148;11.526;2022-07-23T01:02:25;6.85;;;6.13;;
22955;SDS011;40888;48.148;11.526;2022-07-23T01:04:51;7.30;;;6.60;;
22955;SDS011;40888;48.148;11.526;2022-07-23T01:07:18;7.03;;;6.25;;
22955;SDS011;40888;48.148;11.526;2022-07-23T01:09:44;7.22;;;6.53;;
22955;SDS011;40888;48.148;11.526;2022-07-23T01:12:11;7.63;;;6.85;;
22955;SDS011;40888;48.148;11.526;2022-07-23T01:14:37;8.35;;;7.50;;
22955;SDS011;40888;48.148;11.526;2022-07-23T01:17:03;9.00;;;7.95;;
22955;SDS011;40888;48.148;11.526;2022-07-23T01:19:30;10.85;;;8.07;;
22955;SDS011;40888;48.148;11.526;2022-07-23T01:21:57;11.35;;;8.63;;
22955;SDS011;40888;48.148;11.526;2022-07-23T01:24:23;9.90;;;8.00;;
22955;SDS011;40888;48.148;11.526;2022-07-23T01:26:50;8.98;;;7.35;;
22955;SDS011;40888;48.148;11.526;2022-07-23T01:29:16;13.13;;;6.85;;
22955;SDS011;40888;48.148;11.526;2022-07-23T01:31:43;14.35;;;7.15;;
22955;SDS011;40888;48.148;11.526;2022-07-23T01:34:10;9.52;;;6.45;;
22955;SDS011;40888;48.148;11.526;2022-07-23T01:36:36;7.32;;;5.65;;
22955;SDS011;40888;48.148;11.526;2022-07-23T01:39:03;9.45;;;5.18;;
22955;SDS011;40888;48.148;11.526;2022-07-23T01:41:29;8.45;;;5.10;;
22955;SDS011;40888;48.148;11.526;2022-07-23T01:43:56;6.53;;;5.53;;
22955;SDS011;40888;48.148;11.526;2022-07-23T01:46:22;10.13;;;5.68;;
22955;SDS011;40888;48.148;11.526;2022-07-23T01:48:48;9.48;;;6.65;;
22955;SDS011;40888;48.148;11.526;2022-07-23T01:51:14;7.22;;;6.40;;
22955;SDS011;40888;48.148;11.526;2022-07-23T01:53:41;9.25;;;6.03;;
22955;SDS011;40888;48.148;11.526;2022-07-23T01:56:07;8.65;;;6.30;;
22955;SDS011;40888;48.148;11.526;2022-07-23T01:58:33;7.63;;;6.07;;
22955;SDS011;40888;48.148;11.526;2022-07-23T02:01:00;9.02;;;6.55;;
22955;SDS011;40888;48.148;11.526;2022-07-23T02:03:26;7.43;;;6.43;;
22955;SDS011;40888;48.148;11.526;2022-07-23T02:05:52;7.45;;;6.10;;
22955;SDS011;40888;48.148;11.526;2022-07-23T02:08:19;7.03;;;6.20;;
22955;SDS011;40888;48.148;11.526;2022-07-23T02:10:45;6.47;;;5.88;;
22955;SDS011;40888;48.148;11.526;2022-07-23T02:13:11;8.10;;;6.30;;
22955;SDS011;40888;48.148;11.526;2022-07-23T02:15:38;6.60;;;5.80;;
22955;SDS011;40888;48.148;11.526;2022-07-23T02:18:04;6.93;;;6.15;;
22955;SDS011;40888;48.148;11.526;2022-07-23T02:20:30;8.30;;;6.03;;
22955;SDS011;40888;48.148;11.526;2022-07-23T02:22:56;10.80;;;6.43;;
22955;SDS011;40888;48.148;11.526;2022-07-23T02:25:23;7.25;;;5.30;;
22955;SDS011;40888;48.148;11.526;2022-07-23T02:27:49;6.50;;;5.65;;
22955;SDS011;40888;48.148;11.526;2022-07-23T02:30:15;7.85;;;5.05;;
22955;SDS011;40888;48.148;11.526;2022-07-23T02:32:41;5.70;;;4.80;;
22955;SDS011;40888;48.148;11.526;2022-07-23T02:35:07;5.43;;;4.88;;
22955;SDS011;40888;48.148;11.526;2022-07-23T02:37:34;7.47;;;4.45;;
22955;SDS011;40888;48.148;11.526;2022-07-23T02:40:00;5.97;;;4.50;;
22955;SDS011;40888;48.148;11.526;2022-07-23T02:42:26;5.43;;;4.18;;
22955;SDS011;40888;48.148;11.526;2022-07-23T02:44:52;4.38;;;3.97;;
22955;SDS011;40888;48.148;11.526;2022-07-23T02:47:18;4.72;;;4.32;;
22955;SDS011;40888;48.148;11.526;2022-07-23T02:49:44;4.72;;;4.22;;
22955;SDS011;40888;48.148;11.526;2022-07-23T02:52:11;5.55;;;3.78;;
22955;SDS011;40888;48.148;11.526;2022-07-23T02:54:37;3.97;;;3.50;;
22955;SDS011;40888;48.148;11.526;2022-07-23T02:57:04;6.90;;;4.53;;
22955;SDS011;40888;48.148;11.526;2022-07-23T02:59:30;7.22;;;5.30;;
22955;SDS011;40888;48.148;11.526;2022-07-23T03:01:56;6.57;;;5.00;;
22955;SDS011;40888;48.148;11.526;2022-07-23T03:04:23;4.13;;;3.72;;
22955;SDS011;40888;48.148;11.526;2022-07-23T03:06:49;3.83;;;3.15;;
22955;SDS011;40888;48.148;11.526;2022-07-23T03:09:15;4.75;;;3.47;;
22955;SDS011;40888;48.148;11.526;2022-07-23T03:11:41;3.58;;;3.28;;
22955;SDS011;40888;48.148;11.526;2022-07-23T03:14:07;6.72;;;3.65;;
22955;SDS011;40888;48.148;11.526;2022-07-23T03:16:34;4.15;;;3.85;;
22955;SDS011;40888;48.148;11.526;2022-07-23T03:19:00;4.90;;;4.15;;
22955;SDS011;40888;48.148;11.526;2022-07-23T03:21:26;4.40;;;4.00;;
22955;SDS011;40888;48.148;11.526;2022-07-23T03:23:52;6.90;;;4.10;;
22955;SDS011;40888;48.148;11.526;2022-07-23T03:26:18;5.85;;;4.38;;
22955;SDS011;40888;48.148;11.526;2022-07-23T03:28:44;4.85;;;4.13;;
22955;SDS011;40888;48.148;11.526;2022-07-23T03:31:11;4.75;;;4.35;;
22955;SDS011;40888;48.148;11.526;2022-07-23T03:33:37;6.35;;;4.78;;
22955;SDS011;40888;48.148;11.526;2022-07-23T03:36:03;6.18;;;4.38;;
22955;SDS011;40888;48.148;11.526;2022-07-23T03:38:29;5.63;;;4.18;;
22955;SDS011;40888;48.148;11.526;2022-07-23T03:40:55;5.47;;;4.47;;
22955;SDS011;40888;48.148;11.526;2022-07-23T03:43:21;4.68;;;4.28;;
22955;SDS011;40888;48.148;11.526;2022-07-23T03:45:50;5.10;;;4.60;;
22955;SDS011;40888;48.148;11.526;2022-07-23T03:48:17;5.00;;;4.50;;
22955;SDS011;40888;48.148;11.526;2022-07-23T03:50:43;5.55;;;4.93;;
22955;SDS011;40888;48.148;11.526;2022-07-23T03:53:09;4.57;;;4.18;;
22955;SDS011;40888;48.148;11.526;2022-07-23T03:55:35;5.43;;;4.60;;
22955;SDS011;40888;48.148;11.526;2022-07-23T03:58:01;7.90;;;4.65;;
22955;SDS011;40888;48.148;11.526;2022-07-23T04:00:28;4.25;;;3.88;;
22955;SDS011;40888;48.148;11.526;2022-07-23T04:02:54;5.82;;;4.07;;
22955;SDS011;40888;48.148;11.526;2022-07-23T04:05:20;5.03;;;4.53;;
22955;SDS011;40888;48.148;11.526;2022-07-23T04:07:46;4.47;;;4.18;;
22955;SDS011;40888;48.148;11.526;2022-07-23T04:10:12;5.38;;;4.30;;
22955;SDS011;40888;48.148;11.526;2022-07-23T04:12:39;4.88;;;4.38;;
22955;SDS011;40888;48.148;11.526;2022-07-23T04:15:06;5.38;;;4.13;;
22955;SDS011;40888;48.148;11.526;2022-07-23T04:17:33;5.18;;;4.65;;
22955;SDS011;40888;48.148;11.526;2022-07-23T04:19:59;4.78;;;4.22;;
22955;SDS011;40888;48.148;11.526;2022-07-23T04:22:25;6.22;;;5.32;;
22955;SDS011;40888;48.148;11.526;2022-07-23T04:24:51;5.20;;;4.40;;
22955;SDS011;40888;48.148;11.526;2022-07-23T04:27:18;4.97;;;4.43;;
22955;SDS011;40888;48.148;11.526;2022-07-23T04:29:44;5.05;;;4.47;;
22955;SDS011;40888;48.148;11.526;2022-07-23T04:32:10;6.07;;;4.45;;
22955;SDS011;40888;48.148;11.526;2022-07-23T04:34:37;5.47;;;4.45;;
22955;SDS011;40888;48.148;11.526;2022-07-23T04:37:03;4.85;;;4.35;;
22955;SDS011;40888;48.148;11.526;2022-07-23T04:39:29;5.00;;;4.50;;
22955;SDS011;40888;48.148;11.526;2022-07-23T04:41:55;6.68;;;4.53;;
22955;SDS011;40888;48.148;11.526;2022-07-23T04:44:22;4.93;;;4.18;;
22955;SDS011;40888;48.148;11.526;2022-07-23T04:46:48;6.82;;;4.78;;
22955;SDS011;40888;48.148;11.526;2022-07-23T04:49:14;4.38;;;3.70;;
22955;SDS011;40888;48.148;11.526;2022-07-23T04:51:40;5.63;;;4.65;;
22955;SDS011;40888;48.148;11.526;2022-07-23T04:54:06;4.82;;;4.32;;
22955;SDS011;40888;48.148;11.526;2022-07-23T04:56:32;6.70;;;4.78;;
22955;SDS011;40888;48.148;11.526;2022-07-23T04:58:59;5.70;;;4.82;;
22955;SDS011;40888;48.148;11.526;2022-07-23T05:01:25;4.72;;;4.28;;
22955;SDS011;40888;48.148;11.526;2022-07-23T05:03:51;8.10;;;5.18;;
22955;SDS011;40888;48.148;11.526;2022-07-23T05:06:17;7.80;;;4.70;;
22955;SDS011;40888;48.148;11.526;2022-07-23T05:08:43;5.40;;;4.90;;
22955;SDS011;40888;48.148;11.526;2022-07-23T05:11:09;6.25;;;5.28;;
22955;SDS011;40888;48.148;11.526;2022-07-23T05:13:36;5.13;;;4.63;;
22955;SDS011;40888;48.148;11.526;2022-07-23T05:16:02;5.75;;;5.05;;
22955;SDS011;40888;48.148;11.526;2022-07-23T05:18:28;4.93;;;4.53;;
22955;SDS011;40888;48.148;11.526;2022-07-23T05:20:54;7.32;;;5.38;;
22955;SDS011;40888;48.148;11.526;2022-07-23T05:23:21;5.20;;;4.80;;
22955;SDS011;40888;48.148;11.526;2022-07-23T05:25:47;4.85;;;4.45;;
22955;SDS011;40888;48.148;11.526;2022-07-23T05:28:13;5.95;;;5.45;;
22955;SDS011;40888;48.148;11.526;2022-07-23T05:30:39;5.03;;;4.53;;
22955;SDS011;40888;48.148;11.526;2022-07-23T05:33:05;5.00;;;4.47;;
22955;SDS011;40888;48.148;11.526;2022-07-23T05:35:33;6.82;;;5.00;;
22955;SDS011;40888;48.148;11.526;2022-07-23T05:37:59;6.50;;;5.13;;
22955;SDS011;40888;48.148;11.526;2022-07-23T05:40:25;4.60;;;4.20;;
22955;SDS011;40888;48.148;11.526;2022-07-23T05:42:51;5.28;;;4.78;;
22955;SDS011;40888;48.148;11.526;2022-07-23T05:45:17;7.30;;;5.45;;
22955;SDS011;40888;48.148;11.526;2022-07-23T05:47:45;6.35;;;5.28;;
22955;SDS011;40888;48.148;11.526;2022-07-23T05:50:11;7.50;;;5.32;;
22955;SDS011;40888;48.148;11.526;2022-07-23T05:52:38;7.85;;;4.80;;
22955;SDS011;40888;48.148;11.526;2022-07-23T05:55:05;7.38;;;5.10;;
22955;SDS011;40888;48.148;11.526;2022-07-23T05:57:31;5.65;;;4.68;;
22955;SDS011;40888;48.148;11.526;2022-07-23T05:59:57;5.95;;;5.30;;
22955;SDS011;40888;48.148;11.526;2022-07-23T06:02:23;6.80;;;5.43;;
22955;SDS011;40888;48.148;11.526;2022-07-23T06:04:50;5.88;;;5.13;;
22955;SDS011;40888;48.148;11.526;2022-07-23T06:07:16;7.45;;;5.53;;
22955;SDS011;40888;48.148;11.526;2022-07-23T06:09:42;5.60;;;5.10;;
22955;SDS011;40888;48.148;11.526;2022-07-23T06:12:08;6.60;;;5.13;;
22955;SDS011;40888;48.148;11.526;2022-07-23T06:14:34;5.95;;;4.90;;
22955;SDS011;40888;48.148;11.526;2022-07-23T06:17:00;6.57;;;4.80;;
22955;SDS011;40888;48.148;11.526;2022-07-23T06:19:27;6.22;;;5.32;;
22955;SDS011;40888;48.148;11.526;2022-07-23T06:21:53;5.75;;;5.15;;
22955;SDS011;40888;48.148;11.526;2022-07-23T06:24:19;5.93;;;5.32;;
22955;SDS011;40888;48.148;11.526;2022-07-23T06:26:45;7.05;;;5.97;;
22955;SDS011;40888;48.148;11.526;2022-07-23T06:29:11;8.82;;;5.93;;
22955;SDS011;40888;48.148;11.526;2022-07-23T06:31:37;6.95;;;5.63;;
22955;SDS011;40888;48.148;11.526;2022-07-23T06:34:04;5.82;;;5.22;;
22955;SDS011;40888;48.148;11.526;2022-07-23T06:36:30;6.07;;;5.47;;
22955;SDS011;40888;48.148;11.526;2022-07-23T06:38:56;6.28;;;5.68;;
22955;SDS011;40888;48.148;11.526;2022-07-23T06:41:22;6.13;;;5.53;;
22955;SDS011;40888;48.148;11.526;2022-07-23T06:43:49;6.38;;;5.78;;
22955;SDS011;40888;48.148;11.526;2022-07-23T06:46:15;5.93;;;5.32;;
22955;SDS011;40888;48.148;11.526;2022-07-23T06:48:41;6.93;;;5.45;;
22955;SDS011;40888;48.148;11.526;2022-07-23T06:51:07;6.70;;;5.70;;
22955;SDS011;40888;48.148;11.526;2022-07-23T06:53:34;8.27;;;5.63;;
22955;SDS011;40888;48.148;11.526;2022-07-23T06:56:00;6.65;;;5.75;;
22955;SDS011;40888;48.148;11.526;2022-07-23T06:58:26;7.95;;;5.68;;
22955;SDS011;40888;48.148;11.526;2022-07-23T07:00:52;5.60;;;5.05;;
22955;SDS011;40888;48.148;11.526;2022-07-23T07:03:18;6.97;;;5.22;;
22955;SDS011;40888;48.148;11.526;2022-07-23T07:05:45;7.60;;;5.93;;
22955;SDS011;40888;48.148;11.526;2022-07-23T07:08:11;7.07;;;6.13;;
22955;SDS011;40888;48.148;11.526;2022-07-23T07:10:37;6.85;;;6.15;;
22955;SDS011;40888;48.148;11.526;2022-07-23T07:13:03;10.77;;;5.65;;
22955;SDS011;40888;48.148;11.526;2022-07-23T07:15:29;8.13;;;6.00;;
22955;SDS011;40888;48.148;11.526;2022-07-23T07:17:55;6.63;;;5.95;;
22955;SDS011;40888;48.148;11.526;2022-07-23T07:20:22;7.53;;;5.88;;
22955;SDS011;40888;48.148;11.526;2022-07-23T07:22:48;7.40;;;6.70;;
22955;SDS011;40888;48.148;11.526;2022-07-23T07:25:15;7.30;;;6.60;;
22955;SDS011;40888;48.148;11.526;2022-07-23T07:27:41;7.43;;;6.72;;
22955;SDS011;40888;48.148;11.526;2022-07-23T07:30:09;7.78;;;6.03;;
22955;SDS011;40888;48.148;11.526;2022-07-23T07:32:35;6.93;;;6.22;;
22955;SDS011;40888;48.148;11.526;2022-07-23T07:35:05;6.30;;;5.70;;
22955;SDS011;40888;48.148;11.526;2022-07-23T07:37:31;6.97;;;6.05;;
22955;SDS011;40888;48.148;11.526;2022-07-23T07:39:58;9.05;;;6.35;;
22955;SDS011;40888;48.148;11.526;2022-07-23T07:42:24;7.03;;;6.22;;
22955;SDS011;40888;48.148;11.526;2022-07-23T07:44:50;7.13;;;6.43;;
22955;SDS011;40888;48.148;11.526;2022-07-23T07:47:16;7.85;;;6.40;;
22955;SDS011;40888;48.148;11.526;2022-07-23T07:49:42;7.05;;;6.32;;
22955;SDS011;40888;48.148;11.526;2022-07-23T07:52:09;14.05;;;7.50;;
22955;SDS011;40888;48.148;11.526;2022-07-23T07:54:35;11.23;;;6.85;;
22955;SDS011;40888;48.148;11.526;2022-07-23T07:57:02;7.70;;;6.95;;
22955;SDS011;40888;48.148;11.526;2022-07-23T07:59:28;8.32;;;6.55;;
22955;SDS011;40888;48.148;11.526;2022-07-23T08:01:54;7.40;;;6.70;;
22955;SDS011;40888;48.148;11.526;2022-07-23T08:04:20;7.00;;;6.30;;
22955;SDS011;40888;48.148;11.526;2022-07-23T08:06:46;7.15;;;6.47;;
22955;SDS011;40888;48.148;11.526;2022-07-23T08:09:12;7.60;;;6.63;;
22955;SDS011;40888;48.148;11.526;2022-07-23T08:11:39;6.88;;;6.28;;
22955;SDS011;40888;48.148;11.526;2022-07-23T08:14:05;7.38;;;6.53;;
22955;SDS011;40888;48.148;11.526;2022-07-23T08:16:31;9.20;;;6.78;;
22955;SDS011;40888;48.148;11.526;2022-07-23T08:18:57;8.10;;;6.43;;
22955;SDS011;40888;48.148;11.526;2022-07-23T08:21:24;8.73;;;6.68;;
22955;SDS011;40888;48.148;11.526;2022-07-23T08:23:50;8.32;;;6.45;;
22955;SDS011;40888;48.148;11.526;2022-07-23T08:26:16;7.45;;;6.30;;
22955;SDS011;40888;48.148;11.526;2022-07-23T08:28:42;7.07;;;6.10;;
22955;SDS011;40888;48.148;11.526;2022-07-23T08:31:08;7.15;;;5.97;;
22955;SDS011;40888;48.148;11.526;2022-07-23T08:33:36;6.18;;;5.57;;
22955;SDS011;40888;48.148;11.526;2022-07-23T08:36:03;8.85;;;6.28;;
22955;SDS011;40888;48.148;11.526;2022-07-23T08:38:29;8.13;;;5.97;;
22955;SDS011;40888;48.148;11.526;2022-07-23T08:40:55;6.50;;;5.90;;
22955;SDS011;40888;48.148;11.526;2022-07-23T08:43:25;7.40;;;6.43;;
22955;SDS011;40888;48.148;11.526;2022-07-23T08:45:52;7.28;;;6.28;;
22955;SDS011;40888;48.148;11.526;2022-07-23T08:48:22;6.18;;;5.45;;
22955;SDS011;40888;48.148;11.526;2022-07-23T08:50:49;6.10;;;5.53;;
22955;SDS011;40888;48.148;11.526;2022-07-23T08:53:16;6.80;;;6.18;;
22955;SDS011;40888;48.148;11.526;2022-07-23T08:55:43;6.85;;;6.13;;
22955;SDS011;40888;48.148;11.526;2022-07-23T08:58:10;5.90;;;5.20;;
22955;SDS011;40888;48.148;11.526;2022-07-23T09:00:36;6.03;;;5.25;;
22955;SDS011;40888;48.148;11.526;2022-07-23T09:03:03;5.78;;;5.15;;
22955;SDS011;40888;48.148;11.526;2022-07-23T09:05:29;7.05;;;5.85;;
22955;SDS011;40888;48.148;11.526;2022-07-23T09:08:11;7.78;;;5.68;;
22955;SDS011;40888;48.148;11.526;2022-07-23T09:10:45;6.22;;;5.63;;
22955;SDS011;40888;48.148;11.526;2022-07-23T09:13:31;5.45;;;4.95;;
22955;SDS011;40888;48.148;11.526;2022-07-23T09:15:58;6.85;;;6.13;;
22955;SDS011;40888;48.148;11.526;2022-07-23T09:18:35;6.53;;;5.95;;
22955;SDS011;40888;48.148;11.526;2022-07-23T09:21:12;6.30;;;5.55;;
22955;SDS011;40888;48.148;11.526;2022-07-23T09:23:39;6.07;;;5.53;;
22955;SDS011;40888;48.148;11.526;2022-07-23T09:26:19;8.32;;;6.50;;
22955;SDS011;40888;48.148;11.526;2022-07-23T09:28:49;6.40;;;5.53;;
22955;SDS011;40888;48.148;11.526;2022-07-23T09:31:15;6.93;;;6.20;;
22955;SDS011;40888;48.148;11.526;2022-07-23T09:33:41;6.55;;;5.20;;
22955;SDS011;40888;48.148;11.526;2022-07-23T09:36:08;6.97;;;5.35;;
22955;SDS011;40888;48.148;11.526;2022-07-23T09:38:34;6.63;;;6.03;;
22955;SDS011;40888;48.148;11.526;2022-07-23T09:43:33;6.30;;;5.70;;
22955;SDS011;40888;48.148;11.526;2022-07-23T09:48:44;5.60;;;5.10;;
22955;SDS011;40888;48.148;11.526;2022-07-23T09:51:11;5.82;;;5.32;;
22955;SDS011;40888;48.148;11.526;2022-07-23T09:53:38;5.78;;;5.10;;
22955;SDS011;40888;48.148;11.526;2022-07-23T09:56:04;5.35;;;4.95;;
22955;SDS011;40888;48.148;11.526;2022-07-23T09:58:31;6.07;;;5.47;;
22955;SDS011;40888;48.148;11.526;2022-07-23T10:00:57;5.45;;;4.95;;
22955;SDS011;40888;48.148;11.526;2022-07-23T10:03:24;5.43;;;4.88;;
22955;SDS011;40888;48.148;11.526;2022-07-23T10:05:50;7.43;;;5.13;;
22955;SDS011;40888;48.148;11.526;2022-07-23T10:08:18;5.38;;;4.88;;
22955;SDS011;40888;48.148;11.526;2022-07-23T10:10:47;5.45;;;4.95;;
22955;SDS011;40888;48.148;11.526;2022-07-23T10:13:14;5.05;;;4.65;;
22955;SDS011;40888;48.148;11.526;2022-07-23T10:15:53;5.63;;;5.13;;
22955;SDS011;40888;48.148;11.526;2022-07-23T10:18:19;5.35;;;4.85;;
22955;SDS011;40888;48.148;11.526;2022-07-23T10:20:47;6.07;;;4.72;;
22955;SDS011;40888;48.148;11.526;2022-07-23T10:23:16;5.68;;;5.13;;
22955;SDS011;40888;48.148;11.526;2022-07-23T10:25:46;5.20;;;4.70;;
22955;SDS011;40888;48.148;11.526;2022-07-23T10:33:46;5.70;;;5.20;;
22955;SDS011;40888;48.148;11.526;2022-07-23T10:36:18;6.00;;;5.35;;
22955;SDS011;40888;48.148;11.526;2022-07-23T10:38:56;4.88;;;4.47;;
22955;SDS011;40888;48.148;11.526;2022-07-23T10:41:32;5.35;;;4.95;;
22955;SDS011;40888;48.148;11.526;2022-07-23T10:44:12;5.45;;;4.95;;
22955;SDS011;40888;48.148;11.526;2022-07-23T10:49:27;5.65;;;4.88;;
22955;SDS011;40888;48.148;11.526;2022-07-23T10:54:38;5.20;;;4.80;;
22955;SDS011;40888;48.148;11.526;2022-07-23T10:57:06;4.25;;;3.95;;
22955;SDS011;40888;48.148;11.526;2022-07-23T11:02:20;5.05;;;4.55;;
22955;SDS011;40888;48.148;11.526;2022-07-23T11:04:51;6.60;;;5.05;;
22955;SDS011;40888;48.148;11.526;2022-07-23T11:07:17;5.65;;;4.80;;
22955;SDS011;40888;48.148;11.526;2022-07-23T11:09:44;5.32;;;4.82;;
22955;SDS011;40888;48.148;11.526;2022-07-23T11:12:31;5.50;;;5.07;;
22955;SDS011;40888;48.148;11.526;2022-07-23T11:17:23;5.40;;;4.90;;
22955;SDS011;40888;48.148;11.526;2022-07-23T11:22:38;5.45;;;4.95;;
22955;SDS011;40888;48.148;11.526;2022-07-23T11:25:04;8.98;;;5.22;;
22955;SDS011;40888;48.148;11.526;2022-07-23T11:27:43;5.50;;;5.00;;
22955;SDS011;40888;48.148;11.526;2022-07-23T11:30:11;6.30;;;5.28;;
22955;SDS011;40888;48.148;11.526;2022-07-23T11:35:38;5.72;;;5.00;;
22955;SDS011;40888;48.148;11.526;2022-07-23T11:38:06;6.30;;;5.75;;
22955;SDS011;40888;48.148;11.526;2022-07-23T11:40:32;7.32;;;5.65;;
22955;SDS011;40888;48.148;11.526;2022-07-23T11:42:59;6.70;;;6.10;;
22955;SDS011;40888;48.148;11.526;2022-07-23T11:45:30;6.03;;;5.40;;
22955;SDS011;40888;48.148;11.526;2022-07-23T11:47:56;6.68;;;6.00;;
22955;SDS011;40888;48.148;11.526;2022-07-23T11:50:23;5.75;;;5.22;;
22955;SDS011;40888;48.148;11.526;2022-07-23T11:52:51;6.55;;;5.95;;
22955;SDS011;40888;48.148;11.526;2022-07-23T11:55:17;6.90;;;5.85;;
22955;SDS011;40888;48.148;11.526;2022-07-23T11:57:44;6.75;;;6.05;;
22955;SDS011;40888;48.148;11.526;2022-07-23T12:00:12;6.40;;;5.80;;
22955;SDS011;40888;48.148;11.526;2022-07-23T12:02:39;6.10;;;5.60;;
22955;SDS011;40888;48.148;11.526;2022-07-23T12:05:06;6.85;;;6.03;;
22955;SDS011;40888;48.148;11.526;2022-07-23T12:10:03;8.60;;;5.95;;
22955;SDS011;40888;48.148;11.526;2022-07-23T12:12:34;6.50;;;6.00;;
22955;SDS011;40888;48.148;11.526;2022-07-23T12:15:01;6.97;;;6.25;;
22955;SDS011;40888;48.148;11.526;2022-07-23T12:17:28;9.50;;;6.53;;
22955;SDS011;40888;48.148;11.526;2022-07-23T12:19:58;6.47;;;5.78;;
22955;SDS011;40888;48.148;11.526;2022-07-23T12:22:33;6.60;;;5.88;;
22955;SDS011;40888;48.148;11.526;2022-07-23T12:25:00;6.25;;;5.75;;
22955;SDS011;40888;48.148;11.526;2022-07-23T12:27:28;5.82;;;5.22;;
22955;SDS011;40888;48.148;11.526;2022-07-23T12:29:54;6.80;;;6.18;;
22955;SDS011;40888;48.148;11.526;2022-07-23T12:32:21;6.50;;;5.90;;
22955;SDS011;40888;48.148;11.526;2022-07-23T12:34:50;5.97;;;5.47;;
22955;SDS011;40888;48.148;11.526;2022-07-23T12:37:26;6.22;;;5.63;;
22955;SDS011;40888;48.148;11.526;2022-07-23T12:39:54;7.13;;;5.28;;
22955;SDS011;40888;48.148;11.526;2022-07-23T12:42:20;7.28;;;5.30;;
22955;SDS011;40888;48.148;11.526;2022-07-23T12:45:06;6.30;;;5.70;;
22955;SDS011;40888;48.148;11.526;2022-07-23T12:53:38;6.20;;;5.60;;
22955;SDS011;40888;48.148;11.526;2022-07-23T12:56:01;7.60;;;5.80;;
22955;SDS011;40888;48.148;11.526;2022-07-23T12:58:38;6.43;;;5.75;;
22955;SDS011;40888;48.148;11.526;2022-07-23T13:01:05;6.70;;;5.85;;
22955;SDS011;40888;48.148;11.526;2022-07-23T13:03:33;6.35;;;5.18;;
22955;SDS011;40888;48.148;11.526;2022-07-23T13:06:00;6.95;;;6.35;;
22955;SDS011;40888;48.148;11.526;2022-07-23T13:08:28;6.50;;;5.88;;
22955;SDS011;40888;48.148;11.526;2022-07-23T13:10:54;7.30;;;5.75;;
22955;SDS011;40888;48.148;11.526;2022-07-23T13:13:22;8.88;;;6.03;;
22955;SDS011;40888;48.148;11.526;2022-07-23T13:15:48;6.97;;;6.28;;
22955;SDS011;40888;48.148;11.526;2022-07-23T13:18:14;6.88;;;6.18;;
22955;SDS011;40888;48.148;11.526;2022-07-23T13:20:43;5.97;;;5.38;;
22955;SDS011;40888;48.148;11.526;2022-07-23T13:23:09;6.97;;;5.88;;
22955;SDS011;40888;48.148;11.526;2022-07-23T13:25:35;7.10;;;6.50;;
22955;SDS011;40888;48.148;11.526;2022-07-23T13:28:02;8.10;;;6.18;;
22955;SDS011;40888;48.148;11.526;2022-07-23T13:30:28;6.70;;;6.05;;
22955;SDS011;40888;48.148;11.526;2022-07-23T13:32:55;7.45;;;6.75;;
22955;SDS011;40888;48.148;11.526;2022-07-23T13:35:21;6.15;;;5.55;;
22955;SDS011;40888;48.148;11.526;2022-07-23T13:37:47;6.85;;;6.25;;
22955;SDS011;40888;48.148;11.526;2022-07-23T13:40:13;6.80;;;5.97;;
22955;SDS011;40888;48.148;11.526;2022-07-23T13:42:40;7.00;;;6.25;;
22955;SDS011;40888;48.148;11.526;2022-07-23T13:45:06;7.13;;;6.38;;
22955;SDS011;40888;48.148;11.526;2022-07-23T13:47:32;6.70;;;6.10;;
22955;SDS011;40888;48.148;11.526;2022-07-23T13:49:59;6.50;;;6.00;;
22955;SDS011;40888;48.148;11.526;2022-07-23T13:52:25;7.43;;;6.60;;
22955;SDS011;40888;48.148;11.526;2022-07-23T13:54:51;7.00;;;6.30;;
22955;SDS011;40888;48.148;11.526;2022-07-23T13:57:17;7.28;;;6.57;;
22955;SDS011;40888;48.148;11.526;2022-07-23T13:59:44;7.45;;;6.72;;
22955;SDS011;40888;48.148;11.526;2022-07-23T14:02:10;6.43;;;5.93;;
22955;SDS011;40888;48.148;11.526;2022-07-23T14:04:39;7.30;;;6.53;;
22955;SDS011;40888;48.148;11.526;2022-07-23T14:07:05;7.47;;;6.38;;
22955;SDS011;40888;48.148;11.526;2022-07-23T14:09:31;6.93;;;6.32;;
22955;SDS011;40888;48.148;11.526;2022-07-23T14:11:59;7.40;;;6.22;;
22955;SDS011;40888;48.148;11.526;2022-07-23T14:14:25;7.53;;;6.60;;
22955;SDS011;40888;48.148;11.526;2022-07-23T14:16:51;7.10;;;6.45;;
22955;SDS011;40888;48.148;11.526;2022-07-23T14:19:17;8.90;;;6.97;;
22955;SDS011;40888;48.148;11.526;2022-07-23T14:21:44;8.27;;;6.07;;
22955;SDS011;40888;48.148;11.526;2022-07-23T14:24:10;7.45;;;6.75;;
22955;SDS011;40888;48.148;11.526;2022-07-23T14:26:36;7.20;;;6.50;;
22955;SDS011;40888;48.148;11.526;2022-07-23T14:29:02;6.88;;;6.00;;
22955;SDS011;40888;48.148;11.526;2022-07-23T14:31:28;10.43;;;6.13;;
22955;SDS011;40888;48.148;11.526;2022-07-23T14:33:54;7.05;;;6.22;;
22955;SDS011;40888;48.148;11.526;2022-07-23T14:36:21;8.65;;;5.88;;
22955;SDS011;40888;48.148;11.526;2022-07-23T14:38:47;6.47;;;5.82;;
22955;SDS011;40888;48.148;11.526;2022-07-23T14:41:16;5.90;;;5.40;;
22955;SDS011;40888;48.148;11.526;2022-07-23T14:43:43;6.88;;;5.80;;
22955;SDS011;40888;48.148;11.526;2022-07-23T14:46:09;6.35;;;5.18;;
22955;SDS011;40888;48.148;11.526;2022-07-23T14:48:36;6.05;;;5.55;;
22955;SDS011;40888;48.148;11.526;2022-07-23T14:51:02;6.55;;;5.95;;
22955;SDS011;40888;48.148;11.526;2022-07-23T14:53:29;6.72;;;5.55;;
22955;SDS011;40888;48.148;11.526;2022-07-23T14:58:32;6.38;;;5.78;;
22955;SDS011;40888;48.148;11.526;2022-07-23T15:00:58;6.38;;;5.78;;
22955;SDS011;40888;48.148;11.526;2022-07-23T15:03:24;9.48;;;6.60;;
22955;SDS011;40888;48.148;11.526;2022-07-23T15:05:51;6.55;;;5.95;;
22955;SDS011;40888;48.148;11.526;2022-07-23T15:08:18;6.95;;;5.78;;
22955;SDS011;40888;48.148;11.526;2022-07-23T15:10:44;6.63;;;6.05;;